createdAt,value
2023-10-23T00:01:39.699Z,96940.73
2023-10-23T00:04:11.330Z,96938.59
2023-10-23T00:06:42.404Z,96938.34
2023-10-23T00:09:13.425Z,96936.70
2023-10-23T00:11:44.180Z,96939.08
2023-10-23T00:14:15.267Z,96938.61
2023-10-23T00:16:46.074Z,96934.73
2023-10-23T00:19:17.198Z,96934.68
2023-10-23T00:21:47.992Z,96931.39
2023-10-23T00:24:18.796Z,96934.95
2023-10-23T00:26:49.598Z,96937.08
2023-10-23T00:29:20.367Z,96941.88
2023-10-23T00:31:51.108Z,96940.40
2023-10-23T00:34:22.370Z,96938.23
2023-10-23T00:36:53.219Z,96934.25
2023-10-23T00:39:23.999Z,96927.98
2023-10-23T00:41:54.805Z,96922.52
2023-10-23T00:44:25.586Z,96921.09
2023-10-23T00:46:56.702Z,96916.75
2023-10-23T00:49:27.571Z,96918.56
2023-10-23T00:51:58.850Z,96914.34
2023-10-23T00:54:29.900Z,96907.88
2023-10-23T00:57:00.807Z,96907.95
2023-10-23T00:59:31.642Z,96911.36
2023-10-23T01:02:04.515Z,96910.56
2023-10-23T01:04:35.314Z,96910.08
2023-10-23T01:07:06.373Z,96916.73
2023-10-23T01:09:37.154Z,96910.30
2023-10-23T01:12:09.483Z,96912.64
2023-10-23T01:14:40.225Z,96914.52
2023-10-23T01:17:10.981Z,96916.55
2023-10-23T01:19:41.701Z,96912.48
2023-10-23T01:22:12.496Z,96916.86
2023-10-23T01:24:47.372Z,96918.70
2023-10-23T01:27:18.228Z,96918.68
2023-10-23T01:29:48.982Z,96913.15
2023-10-23T01:32:19.732Z,96911.79
2023-10-23T01:34:50.398Z,96922.24
2023-10-23T01:37:21.134Z,96922.38
2023-10-23T01:39:51.986Z,96914.77
2023-10-23T01:42:22.938Z,96911.86
2023-10-23T01:44:53.654Z,96921.39
2023-10-23T01:47:24.338Z,96915.45
2023-10-23T01:49:55.391Z,96920.27
2023-10-23T01:52:26.074Z,96921.27
2023-10-23T01:54:56.940Z,96916.02
2023-10-23T01:57:27.727Z,96916.09
2023-10-23T02:00:05.385Z,96912.27
2023-10-23T02:02:36.232Z,96910.86
2023-10-23T02:05:07.443Z,96908.30
2023-10-23T02:07:38.197Z,96910.71
2023-10-23T02:10:10.654Z,96908.25
2023-10-23T02:12:41.428Z,96912.64
2023-10-23T02:15:13.929Z,96914.52
2023-10-23T02:17:45.127Z,96913.87
2023-10-23T02:20:16.257Z,96913.16
2023-10-23T02:22:47.023Z,96914.09
2023-10-23T02:25:18.310Z,96919.48
2023-10-23T02:27:49.099Z,96919.95
2023-10-23T02:30:20.365Z,96918.77
2023-10-23T02:32:51.127Z,96925.39
2023-10-23T02:35:21.948Z,96923.47
2023-10-23T02:37:52.736Z,96925.80
2023-10-23T02:40:23.471Z,96924.13
2023-10-23T02:42:54.281Z,96924.10
2023-10-23T02:45:25.252Z,96926.82
2023-10-23T02:47:56.177Z,96929.73
2023-10-23T02:50:27.094Z,96929.75
2023-10-23T02:52:58.595Z,96929.59
2023-10-23T02:55:30.592Z,96931.95
2023-10-23T02:58:01.540Z,96932.42
2023-10-23T03:00:32.536Z,96933.49
2023-10-23T03:03:03.440Z,96935.23
2023-10-23T03:05:35.323Z,96939.91
2023-10-23T03:08:07.082Z,96942.58
2023-10-23T03:10:37.944Z,96941.02
2023-10-23T03:13:08.711Z,96941.09
2023-10-23T03:15:41.929Z,96942.20
2023-10-23T03:18:12.965Z,96941.84
2023-10-23T03:20:43.983Z,96940.56
2023-10-23T03:23:14.756Z,96943.61
2023-10-23T03:25:47.345Z,96949.06
2023-10-23T03:28:18.123Z,96941.15
2023-10-23T03:30:49.223Z,96936.66
2023-10-23T03:33:20.044Z,96941.42
2023-10-23T03:35:51.837Z,96941.36
2023-10-23T03:38:22.628Z,96940.27
2023-10-23T03:41:01.083Z,96941.99
2023-10-23T03:43:32.079Z,96941.25
2023-10-23T03:46:06.418Z,96944.18
2023-10-23T03:48:39.042Z,96945.84
2023-10-23T03:51:09.820Z,96944.23
2023-10-23T03:53:40.602Z,96940.73
2023-10-23T03:56:11.442Z,96943.73
2023-10-23T03:58:42.792Z,96948.80
2023-10-23T04:01:13.646Z,96949.98
2023-10-23T04:03:44.706Z,96944.77
2023-10-23T04:06:15.559Z,96939.66
2023-10-23T04:08:46.356Z,96934.39
2023-10-23T04:11:18.331Z,96921.35
2023-10-23T04:13:49.291Z,96917.97
2023-10-23T04:16:20.602Z,96914.29
2023-10-23T04:18:51.845Z,96915.09
2023-10-23T04:21:30.444Z,96917.81
2023-10-23T04:24:01.311Z,96921.82
2023-10-23T04:26:32.057Z,96922.43
2023-10-23T04:29:02.860Z,96920.55
2023-10-23T04:31:33.685Z,96923.28
2023-10-23T04:34:04.579Z,96919.70
2023-10-23T04:36:35.563Z,96917.77
2023-10-23T04:39:06.693Z,96914.74
2023-10-23T04:41:37.462Z,96915.25
2023-10-23T04:44:08.889Z,96911.92
2023-10-23T04:46:39.684Z,96910.17
2023-10-23T04:49:10.506Z,96906.39
2023-10-23T04:51:41.338Z,96905.15
2023-10-23T04:54:12.894Z,96893.85
2023-10-23T04:56:44.482Z,96894.39
2023-10-23T04:59:15.248Z,96893.38
2023-10-23T05:01:46.115Z,96898.64
2023-10-23T05:04:17.047Z,96898.98
2023-10-23T05:06:48.021Z,96897.80
2023-10-23T05:09:19.028Z,96897.58
2023-10-23T05:11:50.065Z,96900.59
2023-10-23T05:14:20.806Z,96908.81
2023-10-23T05:16:51.583Z,96915.17
2023-10-23T05:19:23.349Z,96917.60
2023-10-23T05:21:54.114Z,96920.82
2023-10-23T05:24:24.934Z,96929.65
2023-10-23T05:26:55.716Z,96935.52
2023-10-23T05:29:26.492Z,96939.92
2023-10-23T05:31:57.280Z,96942.02
2023-10-23T05:34:28.102Z,96942.70
2023-10-23T05:36:58.928Z,96949.98
2023-10-23T05:39:29.975Z,96948.36
2023-10-23T05:42:00.818Z,96962.15
2023-10-23T05:44:31.660Z,96960.91
2023-10-23T05:47:02.566Z,96960.23
2023-10-23T05:49:35.497Z,96952.79
2023-10-23T05:52:06.864Z,96959.20
2023-10-23T05:54:37.678Z,96960.78
2023-10-23T05:57:08.698Z,96960.66
2023-10-23T05:59:39.841Z,96966.00
2023-10-23T06:02:12.016Z,96966.26
2023-10-23T06:04:48.446Z,96963.61
2023-10-23T06:07:19.343Z,96959.95
2023-10-23T06:09:50.402Z,96957.79
2023-10-23T06:12:21.239Z,96957.36
2023-10-23T06:14:52.017Z,96959.95
2023-10-23T06:17:22.834Z,96959.04
2023-10-23T06:19:53.745Z,96951.77
2023-10-23T06:22:24.555Z,96952.13
2023-10-23T06:24:55.773Z,96955.25
2023-10-23T06:27:26.894Z,96955.23
2023-10-23T06:29:57.601Z,96953.05
2023-10-23T06:32:28.328Z,96952.77
2023-10-23T06:34:59.036Z,96958.15
2023-10-23T06:37:30.012Z,96956.64
2023-10-23T06:40:00.886Z,96958.70
2023-10-23T06:42:31.739Z,96956.87
2023-10-23T06:45:02.671Z,96955.75
2023-10-23T06:47:33.923Z,96961.33
2023-10-23T06:50:06.365Z,96961.52
2023-10-23T06:52:37.305Z,96959.37
2023-10-23T06:55:09.835Z,96954.30
2023-10-23T06:57:40.707Z,96948.26
2023-10-23T07:00:13.330Z,96952.13
2023-10-23T07:02:44.205Z,96957.04
2023-10-23T07:05:15.008Z,96955.19
2023-10-23T07:07:45.809Z,96962.79
2023-10-23T07:10:16.566Z,96961.41
2023-10-23T07:12:47.367Z,96963.48
2023-10-23T07:15:18.269Z,96963.67
2023-10-23T07:17:49.166Z,96955.70
2023-10-23T07:20:20.172Z,96955.61
2023-10-23T07:22:50.943Z,96964.11
2023-10-23T07:25:21.748Z,96963.05
2023-10-23T07:27:52.520Z,96961.94
2023-10-23T07:30:25.593Z,96955.77
2023-10-23T07:32:56.731Z,96944.98
2023-10-23T07:35:30.018Z,96938.54
2023-10-23T07:38:05.141Z,96943.73
2023-10-23T07:40:35.900Z,96957.35
2023-10-23T07:43:06.789Z,96959.70
2023-10-23T07:45:43.310Z,96959.98
2023-10-23T07:48:14.227Z,96962.42
2023-10-23T07:50:45.067Z,96955.39
2023-10-23T07:53:16.342Z,96957.83
2023-10-23T07:55:47.105Z,96961.38
2023-10-23T07:58:18.480Z,96964.05
2023-10-23T08:00:52.736Z,96964.81
2023-10-23T08:03:25.021Z,96955.33
2023-10-23T08:05:55.977Z,96948.08
2023-10-23T08:08:26.820Z,96950.61
2023-10-23T08:10:57.659Z,96948.59
2023-10-23T08:13:28.871Z,96949.02
2023-10-23T08:16:01.383Z,96948.02
2023-10-23T08:21:12.019Z,96944.77
2023-10-23T08:23:43.776Z,96943.66
2023-10-23T08:26:14.907Z,96942.42
2023-10-23T08:31:34.200Z,96936.70
2023-10-23T08:34:10.388Z,96941.87
2023-10-23T08:36:41.506Z,96941.66
2023-10-23T08:39:12.412Z,96944.95
2023-10-23T08:41:43.344Z,96947.16
2023-10-23T08:44:14.317Z,96944.91
2023-10-23T08:46:45.508Z,96946.88
2023-10-23T08:49:18.930Z,96946.94
2023-10-23T08:51:53.759Z,96939.36
2023-10-23T08:54:24.791Z,96941.21
2023-10-23T08:56:59.412Z,96943.88
2023-10-23T08:59:30.883Z,96949.20
2023-10-23T09:02:02.400Z,96952.16
2023-10-23T09:04:33.551Z,96953.34
2023-10-23T09:07:04.614Z,96951.32
2023-10-23T09:09:35.409Z,96949.45
2023-10-23T09:12:07.596Z,96947.44
2023-10-23T09:14:38.584Z,96943.50
2023-10-23T09:17:10.198Z,96945.23
2023-10-23T09:19:42.691Z,96947.07
2023-10-23T09:22:13.795Z,96946.14
2023-10-23T09:24:46.718Z,96946.89
2023-10-23T09:27:18.341Z,96946.64
2023-10-23T09:29:49.109Z,96948.40
2023-10-23T09:32:20.012Z,96949.81
2023-10-23T09:34:50.891Z,96949.08
2023-10-23T09:37:21.758Z,96951.80
2023-10-23T09:39:55.027Z,96952.76
2023-10-23T09:42:34.457Z,96950.88
2023-10-23T09:45:06.754Z,96950.45
2023-10-23T09:47:37.634Z,96947.98
2023-10-23T09:50:09.635Z,96945.13
2023-10-23T09:52:42.182Z,96943.98
2023-10-23T09:55:15.940Z,96943.36
2023-10-23T09:57:52.366Z,96944.03
2023-10-23T10:00:25.965Z,96940.38
2023-10-23T10:03:01.452Z,96931.98
2023-10-23T10:05:40.140Z,96923.35
2023-10-23T10:08:15.648Z,96917.69
2023-10-23T10:10:47.354Z,96910.98
2023-10-23T10:13:18.446Z,96906.75
2023-10-23T10:15:52.101Z,96908.96
2023-10-23T10:18:24.376Z,96905.38
2023-10-23T10:21:02.155Z,96900.94
2023-10-23T10:23:36.305Z,96901.55
2023-10-23T10:26:07.954Z,96893.75
2023-10-23T10:28:41.671Z,96895.73
2023-10-23T10:31:12.646Z,96893.19
2023-10-23T10:34:28.202Z,96890.63
2023-10-23T10:36:47.773Z,96888.63
2023-10-23T10:39:19.288Z,96889.12
2023-10-23T10:41:50.092Z,96883.73
2023-10-23T10:44:21.769Z,96878.52
2023-10-23T10:46:56.028Z,96876.55
2023-10-23T10:49:27.796Z,96867.02
2023-10-23T10:51:58.968Z,96866.23
2023-10-23T10:54:36.008Z,96859.70
2023-10-23T10:57:07.497Z,96854.25
2023-10-23T10:59:41.008Z,96850.34
2023-10-23T11:02:13.318Z,96841.70
2023-10-23T11:04:44.230Z,96841.67
2023-10-23T11:07:15.130Z,96843.25
2023-10-23T11:09:46.010Z,96841.20
2023-10-23T11:12:16.868Z,96843.30
2023-10-23T11:14:48.465Z,96847.41
2023-10-23T11:17:19.685Z,96843.73
2023-10-23T11:19:50.495Z,96841.95
2023-10-23T11:22:23.133Z,96842.08
2023-10-23T11:24:54.160Z,96835.47
2023-10-23T11:27:25.590Z,96835.05
2023-10-23T11:29:56.797Z,96828.90
2023-10-23T11:32:29.657Z,96825.21
2023-10-23T11:35:05.471Z,96822.90
2023-10-23T11:37:43.463Z,96815.97
2023-10-23T11:40:20.943Z,96808.91
2023-10-23T11:42:55.274Z,96806.52
2023-10-23T11:45:26.300Z,96803.80
2023-10-23T11:47:57.256Z,96807.52
2023-10-23T11:50:30.048Z,96810.94
2023-10-23T11:53:01.514Z,96802.40
2023-10-23T11:55:33.597Z,96800.20
2023-10-23T11:58:05.178Z,96803.52
2023-10-23T12:00:39.848Z,96804.55
2023-10-23T12:03:10.849Z,96802.63
2023-10-23T12:05:41.733Z,96801.09
2023-10-23T12:08:13.355Z,96801.52
2023-10-23T12:10:44.132Z,96803.70
2023-10-23T12:13:15.054Z,96809.11
2023-10-23T12:15:45.918Z,96804.73
2023-10-23T12:18:16.741Z,96795.48
2023-10-23T12:20:47.628Z,96791.80
2023-10-23T12:23:18.418Z,96792.60
2023-10-23T12:25:49.180Z,96787.77
2023-10-23T12:28:20.066Z,96778.70
2023-10-23T12:30:51.512Z,96782.09
2023-10-23T12:33:26.668Z,96777.36
2023-10-23T12:36:05.199Z,96776.39
2023-10-23T12:38:37.138Z,96777.43
2023-10-23T12:41:08.064Z,96780.42
2023-10-23T12:43:38.946Z,96780.01
2023-10-23T12:46:10.638Z,96782.71
2023-10-23T12:48:44.953Z,96781.26
2023-10-23T12:51:16.103Z,96778.83
2023-10-23T12:53:46.881Z,96777.58
2023-10-23T12:56:17.684Z,96771.66
2023-10-23T12:58:48.662Z,96767.02
2023-10-23T13:01:19.655Z,96764.33
2023-10-23T13:03:50.578Z,96766.77
2023-10-23T13:06:21.510Z,96765.71
2023-10-23T13:08:52.600Z,96764.86
2023-10-23T13:11:23.502Z,96764.05
2023-10-23T13:13:54.277Z,96765.29
2023-10-23T13:16:27.409Z,96759.05
2023-10-23T13:18:58.418Z,96758.10
2023-10-23T13:21:34.185Z,96759.77
2023-10-23T13:24:07.061Z,96763.92
2023-10-23T13:26:39.299Z,96766.19
2023-10-23T13:29:10.269Z,96768.34
2023-10-23T13:31:41.061Z,96768.70
2023-10-23T13:34:11.991Z,96765.98
2023-10-23T13:36:42.834Z,96763.45
2023-10-23T13:39:16.878Z,96756.85
2023-10-23T13:41:48.498Z,96752.55
2023-10-23T13:44:19.324Z,96749.73
2023-10-23T13:46:50.232Z,96745.02
2023-10-23T13:49:21.571Z,96742.85
2023-10-23T13:51:52.400Z,96738.08
2023-10-23T13:54:24.839Z,96725.77
2023-10-23T13:56:55.575Z,96726.23
2023-10-23T13:59:26.346Z,96720.82
2023-10-23T14:01:57.169Z,96719.23
2023-10-23T14:04:28.164Z,96714.53
2023-10-23T14:06:59.036Z,96715.30
2023-10-23T14:09:43.266Z,96729.61
2023-10-23T14:12:16.409Z,96731.11
2023-10-23T14:14:47.640Z,96723.05
2023-10-23T14:17:18.503Z,96719.67
2023-10-23T14:19:49.552Z,96721.92
2023-10-23T14:22:20.380Z,96718.73
2023-10-23T14:24:51.503Z,96721.21
2023-10-23T14:27:22.426Z,96720.91
2023-10-23T14:29:53.224Z,96722.95
2023-10-23T14:32:24.077Z,96718.95
2023-10-23T14:34:55.159Z,96721.77
2023-10-23T14:37:26.275Z,96713.17
2023-10-23T14:39:59.273Z,96710.36
2023-10-23T14:42:31.104Z,96707.14
2023-10-23T14:45:04.907Z,96705.64
2023-10-23T14:47:36.209Z,96700.17
2023-10-23T14:50:08.434Z,96688.45
2023-10-23T14:52:39.289Z,96683.34
2023-10-23T14:55:11.857Z,96684.98
2023-10-23T14:57:42.719Z,96692.40
2023-10-23T15:00:16.425Z,96691.59
2023-10-23T15:02:47.210Z,96692.02
2023-10-23T15:05:18.233Z,96702.90
2023-10-23T15:07:49.020Z,96697.39
2023-10-23T15:10:21.907Z,96696.73
2023-10-23T15:12:52.884Z,96687.73
2023-10-23T15:15:23.701Z,96683.70
2023-10-23T15:17:54.637Z,96685.61
2023-10-23T15:20:27.913Z,96682.24
2023-10-23T15:22:58.862Z,96685.02
2023-10-23T15:25:30.017Z,96685.95
2023-10-23T15:28:00.852Z,96690.36
2023-10-23T15:30:34.434Z,96686.31
2023-10-23T15:33:06.437Z,96683.70
2023-10-23T15:35:37.226Z,96684.36
2023-10-23T15:38:07.983Z,96677.25
2023-10-23T15:40:38.814Z,96674.38
2023-10-23T15:43:09.617Z,96673.12
2023-10-23T15:45:41.294Z,96673.72
2023-10-23T15:48:12.139Z,96672.45
2023-10-23T15:50:42.989Z,96676.49
2023-10-23T15:53:13.752Z,96680.77
2023-10-23T15:55:48.678Z,96677.44
2023-10-23T15:58:19.382Z,96676.02
2023-10-23T16:00:50.230Z,96673.24
2023-10-23T16:03:21.715Z,96672.17
2023-10-23T16:05:54.579Z,96670.17
2023-10-23T16:08:25.306Z,96669.35
2023-10-23T16:10:56.113Z,96668.92
2023-10-23T16:13:31.628Z,96668.59
2023-10-23T16:16:15.478Z,96662.81
2023-10-23T16:18:48.034Z,96659.17
2023-10-23T16:21:19.162Z,96661.24
2023-10-23T16:23:50.249Z,96656.10
2023-10-23T16:26:21.061Z,96658.76
2023-10-23T16:28:51.750Z,96659.54
2023-10-23T16:31:22.695Z,96652.55
2023-10-23T16:33:53.616Z,96651.15
2023-10-23T16:36:24.568Z,96650.97
2023-10-23T16:38:55.323Z,96654.02
2023-10-23T16:41:26.074Z,96654.17
2023-10-23T16:43:56.777Z,96653.30
2023-10-23T16:46:27.701Z,96659.40
2023-10-23T16:48:58.580Z,96661.10
2023-10-23T16:51:29.415Z,96659.11
2023-10-23T16:54:00.186Z,96657.09
2023-10-23T16:56:30.899Z,96656.63
2023-10-23T16:59:01.822Z,96652.41
2023-10-23T17:01:32.920Z,96649.74
2023-10-23T17:04:03.819Z,96648.59
2023-10-23T17:06:34.757Z,96649.18
2023-10-23T17:09:05.675Z,96654.73
2023-10-23T17:11:36.400Z,96659.12
2023-10-23T17:14:07.730Z,96653.35
2023-10-23T17:16:38.783Z,96651.05
2023-10-23T17:19:10.293Z,96649.50
2023-10-23T17:21:41.125Z,96649.66
2023-10-23T17:24:12.276Z,96648.95
2023-10-23T17:26:43.383Z,96647.05
2023-10-23T17:29:14.090Z,96650.29
2023-10-23T17:31:44.891Z,96655.21
2023-10-23T17:34:15.726Z,96653.15
2023-10-23T17:36:46.512Z,96652.79
2023-10-23T17:39:17.184Z,96649.36
2023-10-23T17:41:48.114Z,96652.95
2023-10-23T17:44:19.476Z,96654.08
2023-10-23T17:46:52.933Z,96656.73
2023-10-23T17:49:23.964Z,96646.89
2023-10-23T17:51:55.963Z,96643.53
2023-10-23T17:54:26.785Z,96636.77
2023-10-23T17:56:57.968Z,96634.86
2023-10-23T17:59:28.718Z,96632.34
2023-10-23T18:01:59.662Z,96629.11
2023-10-23T18:04:30.925Z,96628.13
2023-10-23T18:07:04.260Z,96621.63
2023-10-23T18:09:35.098Z,96621.46
2023-10-23T18:12:06.404Z,96618.91
2023-10-23T18:14:37.366Z,96611.92
2023-10-23T18:17:08.301Z,96608.13
2023-10-23T18:19:39.413Z,96602.37
2023-10-23T18:22:10.360Z,96601.23
2023-10-23T18:24:41.161Z,96598.17
2023-10-23T18:27:11.978Z,96599.39
2023-10-23T18:29:42.792Z,96595.64
2023-10-23T18:32:13.555Z,96591.23
2023-10-23T18:34:44.409Z,96591.89
2023-10-23T18:37:15.393Z,96588.33
2023-10-23T18:39:46.167Z,96590.27
2023-10-23T18:42:16.999Z,96602.91
2023-10-23T18:44:47.810Z,96596.77
2023-10-23T18:47:21.215Z,96593.30
2023-10-23T18:49:52.691Z,96596.58
2023-10-23T18:52:23.558Z,96593.11
2023-10-23T18:54:54.565Z,96596.79
2023-10-23T18:57:25.354Z,96598.98
2023-10-23T18:59:56.109Z,96601.44
2023-10-23T19:02:27.047Z,96601.41
2023-10-23T19:04:58.121Z,96597.21
2023-10-23T19:07:28.980Z,96598.52
2023-10-23T19:10:00.379Z,96601.70
2023-10-23T19:12:31.216Z,96604.21
2023-10-23T19:15:02.153Z,96604.09
2023-10-23T19:17:40.415Z,96601.83
2023-10-23T19:20:14.209Z,96598.19
2023-10-23T19:22:44.976Z,96597.84
2023-10-23T19:25:15.927Z,96594.20
2023-10-23T19:27:46.673Z,96587.11
2023-10-23T19:30:17.978Z,96583.98
2023-10-23T19:32:50.360Z,96584.59
2023-10-23T19:35:22.896Z,96583.85
2023-10-23T19:37:54.653Z,96577.05
2023-10-23T19:40:27.978Z,96573.38
2023-10-23T19:43:05.681Z,96574.48
2023-10-23T19:45:37.830Z,96581.80
2023-10-23T19:48:13.217Z,96584.83
2023-10-23T19:50:48.760Z,96579.75
2023-10-23T19:53:20.506Z,96571.27
2023-10-23T19:55:53.337Z,96578.67
2023-10-23T19:58:26.860Z,96583.11
2023-10-23T20:00:57.828Z,96580.70
2023-10-23T20:03:28.637Z,96573.95
2023-10-23T20:05:59.450Z,96567.63
2023-10-23T20:08:30.300Z,96570.50
2023-10-23T20:11:01.633Z,96566.36
2023-10-23T20:13:32.523Z,96571.56
2023-10-23T20:16:05.900Z,96565.09
2023-10-23T20:18:36.846Z,96566.78
2023-10-23T20:21:07.818Z,96555.27
2023-10-23T20:23:39.610Z,96550.41
2023-10-23T20:26:16.672Z,96559.21
2023-10-23T20:28:49.076Z,96558.06
2023-10-23T20:31:23.209Z,96557.13
2023-10-23T20:33:54.641Z,96552.36
2023-10-23T20:36:25.669Z,96556.02
2023-10-23T20:38:56.586Z,96554.27
2023-10-23T20:41:27.397Z,96549.06
2023-10-23T20:43:58.166Z,96543.02
2023-10-23T20:46:29.719Z,96542.58
2023-10-23T20:49:00.669Z,96545.18
2023-10-23T20:51:31.509Z,96552.52
2023-10-23T20:54:02.326Z,96557.85
2023-10-23T20:56:33.096Z,96552.02
2023-10-23T20:59:03.845Z,96549.79
2023-10-23T21:01:34.960Z,96556.98
2023-10-23T21:04:06.221Z,96558.04
2023-10-23T21:06:37.030Z,96556.75
2023-10-23T21:09:07.822Z,96555.57
2023-10-23T21:11:38.595Z,96551.44
2023-10-23T21:14:09.405Z,96546.69
2023-10-23T21:16:40.281Z,96536.95
2023-10-23T21:19:11.262Z,96538.19
2023-10-23T21:21:44.416Z,96539.67
2023-10-23T21:24:16.819Z,96533.21
2023-10-23T21:26:47.589Z,96524.19
2023-10-23T21:29:22.229Z,96522.58
2023-10-23T21:31:54.798Z,96520.79
2023-10-23T21:34:26.536Z,96516.71
2023-10-23T21:36:57.375Z,96512.88
2023-10-23T21:39:29.930Z,96506.00
2023-10-23T21:42:03.263Z,96502.08
2023-10-23T21:44:33.978Z,96495.55
2023-10-23T21:47:04.992Z,96492.04
2023-10-23T21:49:37.184Z,96488.63
2023-10-23T21:52:09.981Z,96497.91
2023-10-23T21:54:42.084Z,96502.59
2023-10-23T21:57:22.983Z,96498.77
2023-10-23T21:59:55.561Z,96495.14
2023-10-23T22:02:27.502Z,96490.17
2023-10-23T22:04:59.124Z,96487.08
2023-10-23T22:07:30.718Z,96481.69
2023-10-23T22:10:03.935Z,96480.54
2023-10-23T22:12:35.782Z,96478.46
2023-10-23T22:15:08.586Z,96474.52
2023-10-23T22:17:39.473Z,96473.87
2023-10-23T22:20:12.332Z,96466.02
2023-10-23T22:22:43.447Z,96465.12
2023-10-23T22:25:14.655Z,96457.69
2023-10-23T22:27:45.431Z,96448.80
2023-10-23T22:30:16.742Z,96446.13
2023-10-23T22:32:57.172Z,96443.55
2023-10-23T22:35:38.282Z,96444.75
2023-10-23T22:38:09.688Z,96440.84
2023-10-23T22:40:40.951Z,96455.83
2023-10-23T22:43:12.910Z,96455.90
2023-10-23T22:45:59.230Z,96457.88
2023-10-23T22:48:33.767Z,96452.36
2023-10-23T22:51:05.301Z,96449.13
2023-10-23T22:53:38.387Z,96443.93
2023-10-23T22:56:12.895Z,96435.63
2023-10-23T22:58:44.510Z,96435.56
2023-10-23T23:01:16.370Z,96437.44
2023-10-23T23:03:48.216Z,96436.02
2023-10-23T23:06:23.831Z,96434.92
2023-10-23T23:08:57.812Z,96428.54
2023-10-23T23:11:29.426Z,96429.80
2023-10-23T23:14:00.935Z,96428.91
2023-10-23T23:16:35.350Z,96425.27
2023-10-23T23:19:10.199Z,96428.46
2023-10-23T23:21:44.483Z,96429.89
2023-10-23T23:24:15.208Z,96427.38
2023-10-23T23:26:46.017Z,96424.92
2023-10-23T23:29:16.800Z,96430.59
2023-10-23T23:31:47.644Z,96429.69
2023-10-23T23:34:18.592Z,96426.52
2023-10-23T23:36:49.758Z,96425.31
2023-10-23T23:39:20.486Z,96426.21
2023-10-23T23:41:51.399Z,96425.25
2023-10-23T23:44:22.214Z,96423.11
2023-10-23T23:46:53.045Z,96421.13
2023-10-23T23:49:23.918Z,96413.27
2023-10-23T23:51:55.269Z,96424.53
2023-10-23T23:54:26.079Z,96426.09
2023-10-23T23:56:57.240Z,96432.77
2023-10-23T23:59:27.942Z,96444.23
